Portada
METAR-TAF:

METAR-TAF

Aeroports :

Aeroport Internacional Imam Khomeini

Teheran, Iran

latitud: 35-24-58N, longitud: 51-09-08E, altitud: 1007 m

Observació

L'informe es va fer fa 57 minuts, a les 06:00 UTC
Vent 14 kt del Nord/Nord-Oest
Temperatura 25°C
Humitat 44%
Pressió 1018 hPa
Visibilitat 10 km o més
sense núvols per sota de 1500 mi sense presència de cumulonimbus.

METAR: OIIE 210600Z 33014KT CAVOK 25/12 Q1018

Hora: 10:27 (06:57 UTC)

Pronòstic

L'informe es va fer fa 1 hora i 37 minuts, a les 05:20 UTC
Pronòstic vàlid del 21 a les 06 UTC al 22 a les 12 UTC
Vent 8 kt del Nord-Oest
Visibilitat: 8000 m
Temporalment
l' 21 a les 06 UTC al 21 a les 15 UTC
Vent 16 kt del Oest/Nord-Oest
Temporalment
l' 22 a les 00 UTC al 22 a les 06 UTC
Vent 14 kt del Oest

TAF: OIIE 210520Z 2106/2212 32008KT 8000 NSC TEMPO 2106/2115 30016KT TEMPO 2200/2206 28014KT

Observacions i pronòstics meteorològics de més de 4000 aeroports (METAR i TAF).

Les estacions disponibles són els punts grocs i vermells al mapa.

Posi el ratolí al punt desitjat per veure el nom de l'estació.

Feu clic per veure les observacions i els pronòstics meteorològics.

Per canviar el mapa: feu clic els botons verds amb una creu de color negre per apropar; al botó verd amb un guió per allunyar la imatge; o en les fletxes verdes per a mapes adjacents.


METAR-TAF: